Terminal Aerodrome Forecast
Issued by NWS

Home | Current Version | Previous Version | Text Only | Print | Product List | Glossary On
Versions: 1 2 3 4 5 6 7 8 9 10 11 12 13 14 15 16
143
FTUS45 KPSR 241224 AAA
TAFIPL
TAF AMD
KIPL 241224Z 2412/2512 13008KT P6SM FEW250
     FM241300 15015KT P6SM FEW030 FEW250
     FM241500 13006KT P6SM FEW250
     FM242000 14014G20KT P6SM FEW250
     FM250400 15011KT P6SM FEW120 BKN250=

USA.gov is the U.S. government's official web portal to all federal, state and local government web resources and services.